FMNN

Fascene Airport

Nosy Be, Madagascar
METAR FMNN 171500Z 04004KT 9999 FEW020CB SCT100 BKN233 29/25 Q1010
Observed Flight Rules
Dec-17 @ 15:00 UTC (6 hours ago) Visual Flight Rules
Wind Visibility Clouds
40° at 4 knots 10,000+ meters
  • Few at 2,000' AGL
  • Scattered at 10,000' AGL
  • Broken at 23,300' AGL
Temperatures Readings
Current 29°C / 84°F
Dewpoint 25°C / 77°F
Humidity 79%
Altimeter 29.82" Hg
Pressure 1010 hPa
Elevation 9
METAR FMNN 171500Z 04004KT 9999 FEW020CB SCT100 BKN233 29/25 Q1010
Observed Flight Rules
Dec-17 @ 15:00 UTC
(6 hours ago)
VFR
Wind Visibility
40° at 4 knots 10,000+ meters
Clouds
  • Few at 2,000' AGL
  • Scattered at 10,000' AGL
  • Broken at 23,300' AGL
Temperature Dewpoint
29°C / 84°F 25°C / 77°F
Humidity Altimeter Pressure
79% 29.82" Hg 1010 hPa